createdAt,value
2024-03-28T00:00:16.703Z,5.77
2024-03-28T00:01:17.255Z,5.68
2024-03-28T00:02:16.809Z,5.68
2024-03-28T00:03:16.362Z,5.75
2024-03-28T00:04:16.919Z,5.77
2024-03-28T00:05:16.498Z,5.72
2024-03-28T00:06:17.031Z,5.76
2024-03-28T00:07:16.538Z,5.73
2024-03-28T00:08:17.112Z,5.73
2024-03-28T00:09:16.621Z,5.70
2024-03-28T00:10:17.149Z,5.70
2024-03-28T00:11:16.711Z,5.72
2024-03-28T00:12:17.312Z,5.73
2024-03-28T00:13:16.880Z,5.72
2024-03-28T00:14:16.485Z,5.68
2024-03-28T00:15:17.128Z,5.73
2024-03-28T00:16:16.673Z,5.75
2024-03-28T00:17:17.250Z,5.69
2024-03-28T00:18:16.760Z,5.82
2024-03-28T00:19:23.716Z,5.77
2024-03-28T00:20:16.467Z,5.70
2024-03-28T00:21:17.089Z,5.69
2024-03-28T00:22:16.614Z,5.72
2024-03-28T00:23:17.158Z,5.69
2024-03-28T00:24:16.687Z,5.68
2024-03-28T00:25:18.084Z,5.68
2024-03-28T00:26:16.688Z,5.68
2024-03-28T00:27:17.248Z,5.68
2024-03-28T00:28:16.832Z,5.76
2024-03-28T00:29:16.425Z,5.75
2024-03-28T00:30:17.032Z,5.79
2024-03-28T00:31:16.610Z,5.70
2024-03-28T00:32:17.267Z,5.76
2024-03-28T00:33:19.164Z,5.72
2024-03-28T00:34:16.973Z,5.75
2024-03-28T00:35:16.591Z,5.73
2024-03-28T00:36:17.144Z,5.68
2024-03-28T00:37:16.723Z,5.66
2024-03-28T00:38:16.551Z,5.65
2024-03-28T00:39:17.093Z,5.65
2024-03-28T00:40:16.685Z,5.63
2024-03-28T00:41:16.340Z,5.69
2024-03-28T00:42:16.864Z,5.69
2024-03-28T00:43:16.420Z,5.68
2024-03-28T00:44:17.057Z,5.65
2024-03-28T00:45:16.638Z,5.68
2024-03-28T00:46:17.246Z,5.65
2024-03-28T00:47:16.907Z,5.65
2024-03-28T00:48:16.438Z,5.70
2024-03-28T00:49:17.081Z,5.75
2024-03-28T00:50:16.724Z,5.61
2024-03-28T00:51:17.304Z,5.63
2024-03-28T00:52:16.911Z,5.62
2024-03-28T00:53:16.520Z,5.62
2024-03-28T00:54:17.086Z,5.70
2024-03-28T00:55:16.651Z,5.70
2024-03-28T00:56:17.310Z,5.69
2024-03-28T00:57:16.908Z,5.68
2024-03-28T00:58:16.511Z,5.73
2024-03-28T00:59:17.122Z,5.72
2024-03-28T01:00:16.637Z,5.75
2024-03-28T01:01:17.201Z,5.75
2024-03-28T01:02:16.819Z,5.79
2024-03-28T01:03:16.357Z,5.75
2024-03-28T01:04:16.924Z,5.70
2024-03-28T01:05:16.528Z,5.72
2024-03-28T01:06:17.081Z,5.72
2024-03-28T01:07:16.680Z,5.65
2024-03-28T01:08:17.250Z,5.72
2024-03-28T01:09:16.761Z,5.68
2024-03-28T01:10:17.344Z,5.70
2024-03-28T01:11:16.946Z,5.75
2024-03-28T01:12:16.524Z,5.79
2024-03-28T01:13:17.113Z,5.70
2024-03-28T01:14:16.665Z,5.70
2024-03-28T01:15:17.212Z,5.75
2024-03-28T01:16:16.789Z,5.76
2024-03-28T01:17:16.371Z,5.79
2024-03-28T01:18:16.931Z,5.73
2024-03-28T01:19:16.498Z,5.75
2024-03-28T01:20:17.168Z,5.73
2024-03-28T01:21:16.734Z,5.80
2024-03-28T01:22:17.285Z,5.80
2024-03-28T01:23:16.835Z,5.83
2024-03-28T01:24:16.366Z,5.76
2024-03-28T01:25:16.923Z,5.77
2024-03-28T01:26:16.559Z,5.75
2024-03-28T01:27:17.141Z,5.79
2024-03-28T01:28:16.725Z,5.80
2024-03-28T01:29:17.280Z,5.80
2024-03-28T01:30:16.810Z,5.83
2024-03-28T01:31:16.370Z,5.82
2024-03-28T01:32:17.028Z,5.82
2024-03-28T01:33:16.576Z,5.79
2024-03-28T01:34:17.156Z,5.77
2024-03-28T01:35:16.717Z,5.79
2024-03-28T01:36:17.244Z,5.76
2024-03-28T01:37:16.783Z,5.77
2024-03-28T01:38:16.343Z,5.80
2024-03-28T01:39:16.949Z,5.82
2024-03-28T01:40:16.507Z,5.76
2024-03-28T01:41:17.035Z,5.76
2024-03-28T01:42:16.566Z,5.77
2024-03-28T01:43:17.162Z,5.80
2024-03-28T01:44:16.756Z,5.83
2024-03-28T01:45:17.402Z,5.80
2024-03-28T01:46:20.111Z,5.76
2024-03-28T01:47:26.101Z,5.73
2024-03-28T01:48:17.249Z,5.72
2024-03-28T01:49:16.820Z,5.75
2024-03-28T01:50:16.432Z,5.79
2024-03-28T01:51:16.967Z,5.79
2024-03-28T01:52:16.561Z,5.82
2024-03-28T01:53:17.170Z,5.80
2024-03-28T01:54:16.716Z,5.80
2024-03-28T01:55:17.360Z,5.80
2024-03-28T01:56:17.115Z,5.82
2024-03-28T01:57:16.647Z,5.83
2024-03-28T01:58:17.202Z,5.93
2024-03-28T01:59:16.782Z,5.93
2024-03-28T02:00:16.301Z,5.96
2024-03-28T02:01:16.880Z,5.89
2024-03-28T02:02:16.523Z,5.89
2024-03-28T02:03:17.046Z,5.92
2024-03-28T02:04:16.631Z,5.92
2024-03-28T02:05:17.264Z,5.90
2024-03-28T02:06:16.846Z,5.90
2024-03-28T02:07:16.433Z,5.89
2024-03-28T02:08:17.011Z,5.93
2024-03-28T02:09:16.569Z,5.94
2024-03-28T02:10:17.170Z,5.93
2024-03-28T02:11:16.713Z,5.89
2024-03-28T02:12:17.274Z,5.89
2024-03-28T02:13:16.843Z,5.82
2024-03-28T02:14:16.480Z,5.83
2024-03-28T02:15:17.023Z,5.87
2024-03-28T02:16:16.690Z,5.87
2024-03-28T02:17:17.283Z,5.85
2024-03-28T02:18:16.834Z,5.83
2024-03-28T02:19:16.422Z,5.89
2024-03-28T02:20:16.996Z,5.87
2024-03-28T02:21:16.543Z,5.83
2024-03-28T02:22:17.107Z,5.79
2024-03-28T02:23:16.770Z,5.76
2024-03-28T02:24:16.336Z,5.76
2024-03-28T02:25:16.899Z,5.75
2024-03-28T02:26:16.441Z,5.79
2024-03-28T02:27:16.986Z,5.83
2024-03-28T02:28:16.534Z,5.82
2024-03-28T02:29:17.105Z,5.77
2024-03-28T02:30:16.658Z,5.76
2024-03-28T02:31:16.797Z,5.75
2024-03-28T02:32:16.432Z,5.75
2024-03-28T02:33:16.970Z,5.76
2024-03-28T02:34:16.499Z,5.80
2024-03-28T02:35:17.033Z,5.82
2024-03-28T02:36:16.568Z,5.80
2024-03-28T02:37:17.152Z,5.75
2024-03-28T02:38:16.754Z,5.75
2024-03-28T02:39:17.287Z,5.73
2024-03-28T02:40:16.847Z,5.75
2024-03-28T02:41:16.461Z,5.76
2024-03-28T02:42:17.012Z,5.73
2024-03-28T02:43:16.548Z,5.72
2024-03-28T02:44:17.158Z,5.73
2024-03-28T02:45:16.690Z,5.75
2024-03-28T02:46:17.283Z,5.75
2024-03-28T02:47:16.830Z,5.70
2024-03-28T02:48:16.343Z,5.72
2024-03-28T02:49:16.911Z,5.93
2024-03-28T02:50:16.506Z,5.82
2024-03-28T02:51:17.040Z,5.80
2024-03-28T02:52:16.592Z,5.79
2024-03-28T02:53:17.182Z,5.75
2024-03-28T02:54:16.725Z,5.70
2024-03-28T02:55:17.306Z,5.70
2024-03-28T02:56:16.894Z,5.76
2024-03-28T02:57:16.441Z,5.70
2024-03-28T02:58:16.977Z,5.73
2024-03-28T02:59:16.563Z,5.76
2024-03-28T03:00:17.105Z,5.72
2024-03-28T03:01:16.638Z,5.72
2024-03-28T03:02:17.181Z,5.70
2024-03-28T03:03:16.714Z,5.72
2024-03-28T03:04:17.293Z,5.63
2024-03-28T03:05:16.882Z,5.68
2024-03-28T03:06:16.426Z,5.63
2024-03-28T03:07:16.994Z,5.62
2024-03-28T03:08:16.611Z,5.61
2024-03-28T03:09:17.184Z,5.62
2024-03-28T03:10:16.728Z,5.53
2024-03-28T03:11:17.258Z,5.53
2024-03-28T03:12:16.765Z,5.55
2024-03-28T03:13:17.323Z,5.57
2024-03-28T03:14:16.913Z,5.57
2024-03-28T03:15:16.493Z,5.52
2024-03-28T03:16:17.047Z,5.53
2024-03-28T03:17:16.627Z,5.51
2024-03-28T03:18:17.212Z,5.46
2024-03-28T03:19:16.726Z,5.45
2024-03-28T03:20:17.286Z,5.42
2024-03-28T03:21:16.852Z,5.38
2024-03-28T03:22:16.385Z,5.35
2024-03-28T03:23:16.906Z,5.34
2024-03-28T03:24:17.228Z,5.35
2024-03-28T03:25:16.787Z,5.34
2024-03-28T03:26:16.361Z,5.28
2024-03-28T03:27:16.939Z,5.31
2024-03-28T03:28:16.523Z,5.30
2024-03-28T03:29:17.095Z,5.31
2024-03-28T03:30:16.655Z,5.30
2024-03-28T03:31:17.198Z,5.27
2024-03-28T03:32:16.727Z,5.24
2024-03-28T03:33:17.288Z,5.23
2024-03-28T03:34:16.849Z,5.21
2024-03-28T03:35:16.413Z,5.21
2024-03-28T03:36:16.990Z,5.21
2024-03-28T03:37:16.579Z,5.18
2024-03-28T03:38:17.181Z,5.17
2024-03-28T03:39:16.817Z,5.20
2024-03-28T03:40:16.361Z,5.14
2024-03-28T03:41:16.894Z,5.17
2024-03-28T03:42:16.450Z,5.17
2024-03-28T03:43:17.007Z,5.18
2024-03-28T03:44:16.588Z,5.15
2024-03-28T03:45:17.247Z,5.14
2024-03-28T03:46:16.832Z,5.13
2024-03-28T03:47:16.390Z,5.11
2024-03-28T03:48:16.953Z,5.11
2024-03-28T03:49:16.511Z,5.07
2024-03-28T03:50:17.076Z,5.10
2024-03-28T03:51:16.638Z,5.13
2024-03-28T03:52:17.181Z,5.11
2024-03-28T03:53:16.775Z,5.06
2024-03-28T03:54:16.386Z,5.08
2024-03-28T03:55:17.008Z,5.06
2024-03-28T03:56:16.589Z,5.03
2024-03-28T03:57:17.097Z,5.04
2024-03-28T03:58:16.633Z,5.03
2024-03-28T03:59:17.256Z,4.99
2024-03-28T04:00:16.832Z,4.99
2024-03-28T04:01:16.431Z,4.97
2024-03-28T04:02:16.995Z,4.96
2024-03-28T04:03:16.512Z,4.92
2024-03-28T04:04:17.066Z,4.89
2024-03-28T04:05:16.593Z,4.96
2024-03-28T04:06:17.154Z,4.96
2024-03-28T04:07:16.740Z,4.90
2024-03-28T04:08:16.327Z,4.89
2024-03-28T04:09:16.875Z,4.90
2024-03-28T04:10:16.389Z,4.89
2024-03-28T04:11:16.920Z,4.85
2024-03-28T04:12:16.481Z,4.85
2024-03-28T04:13:17.033Z,4.82
2024-03-28T04:14:16.685Z,4.83
2024-03-28T04:15:17.282Z,4.87
2024-03-28T04:16:16.932Z,4.82
2024-03-28T04:17:16.561Z,4.79
2024-03-28T04:18:17.073Z,4.78
2024-03-28T04:19:16.597Z,4.79
2024-03-28T04:20:17.166Z,4.76
2024-03-28T04:21:16.684Z,4.73
2024-03-28T04:22:17.237Z,4.73
2024-03-28T04:23:16.773Z,4.73
2024-03-28T04:24:16.315Z,4.72
2024-03-28T04:25:17.067Z,4.69
2024-03-28T04:26:16.668Z,4.67
2024-03-28T04:27:17.284Z,4.64
2024-03-28T04:28:16.861Z,4.64
2024-03-28T04:29:16.448Z,4.62
2024-03-28T04:30:17.032Z,4.62
2024-03-28T04:31:16.606Z,4.57
2024-03-28T04:32:17.216Z,4.55
2024-03-28T04:33:16.756Z,4.55
2024-03-28T04:34:16.409Z,4.52
2024-03-28T04:35:16.980Z,4.54
2024-03-28T04:36:16.527Z,4.50
2024-03-28T04:37:17.163Z,4.50
2024-03-28T04:38:16.745Z,4.45
2024-03-28T04:39:17.328Z,4.47
2024-03-28T04:40:16.888Z,4.44
2024-03-28T04:41:16.457Z,4.44
2024-03-28T04:42:16.990Z,4.44
2024-03-28T04:43:16.548Z,4.42
2024-03-28T04:44:17.055Z,4.42
2024-03-28T04:45:16.654Z,4.45
2024-03-28T04:46:17.185Z,4.47
2024-03-28T04:47:16.711Z,4.44
2024-03-28T04:48:17.280Z,4.45
2024-03-28T04:49:16.835Z,4.40
2024-03-28T04:50:16.387Z,4.35
2024-03-28T04:51:16.910Z,4.35
2024-03-28T04:52:16.473Z,4.40
2024-03-28T04:53:17.021Z,4.31
2024-03-28T04:54:16.595Z,4.33
2024-03-28T04:55:17.149Z,4.31
2024-03-28T04:56:16.728Z,4.34
2024-03-28T04:57:17.291Z,4.31
2024-03-28T04:58:16.824Z,4.31
2024-03-28T04:59:16.393Z,4.28
2024-03-28T05:00:16.938Z,4.27
2024-03-28T05:01:16.484Z,4.23
2024-03-28T05:02:17.029Z,4.23
2024-03-28T05:03:16.600Z,4.21
2024-03-28T05:04:17.159Z,4.20
2024-03-28T05:05:16.725Z,4.20
2024-03-28T05:06:17.257Z,4.17
2024-03-28T05:07:16.779Z,4.18
2024-03-28T05:08:17.287Z,4.21
2024-03-28T05:09:16.875Z,4.27
2024-03-28T05:10:16.398Z,4.18
2024-03-28T05:11:16.953Z,4.17
2024-03-28T05:12:16.500Z,4.18
2024-03-28T05:13:17.036Z,4.18
2024-03-28T05:14:16.638Z,4.14
2024-03-28T05:15:17.202Z,4.13
2024-03-28T05:16:16.745Z,4.13
2024-03-28T05:17:17.284Z,4.12
2024-03-28T05:18:16.836Z,4.12
2024-03-28T05:19:16.370Z,4.16
2024-03-28T05:20:16.905Z,4.13
2024-03-28T05:21:16.428Z,4.13
2024-03-28T05:22:16.977Z,4.10
2024-03-28T05:23:16.508Z,4.13
2024-03-28T05:24:17.062Z,4.13
2024-03-28T05:25:16.569Z,4.16
2024-03-28T05:26:17.177Z,4.17
2024-03-28T05:27:16.744Z,4.16
2024-03-28T05:28:17.293Z,4.18
2024-03-28T05:29:16.825Z,4.18
2024-03-28T05:30:16.366Z,4.18
2024-03-28T05:31:16.882Z,4.27
2024-03-28T05:32:16.437Z,4.27
2024-03-28T05:33:16.997Z,4.30
2024-03-28T05:34:16.587Z,4.27
2024-03-28T05:35:17.141Z,4.31
2024-03-28T05:36:16.678Z,4.34
2024-03-28T05:37:17.195Z,4.38
2024-03-28T05:38:16.740Z,4.38
2024-03-28T05:39:17.298Z,4.41
2024-03-28T05:40:16.882Z,4.38
2024-03-28T05:41:16.430Z,4.40
2024-03-28T05:42:16.967Z,4.41
2024-03-28T05:43:16.520Z,4.40
2024-03-28T05:44:17.072Z,4.40
2024-03-28T05:45:16.644Z,4.42
2024-03-28T05:46:17.219Z,4.31
2024-03-28T05:47:16.800Z,4.38
2024-03-28T05:48:16.307Z,4.48
2024-03-28T05:49:16.822Z,4.44
2024-03-28T05:50:16.367Z,4.50
2024-03-28T05:51:19.216Z,4.51
2024-03-28T05:52:16.910Z,4.55
2024-03-28T05:53:16.488Z,4.62
2024-03-28T05:54:17.015Z,4.65
2024-03-28T05:55:16.554Z,4.69
2024-03-28T05:56:17.118Z,4.68
2024-03-28T05:57:16.674Z,4.65
2024-03-28T05:58:17.216Z,4.64
2024-03-28T05:59:16.783Z,4.61
2024-03-28T06:00:16.346Z,4.71
2024-03-28T06:01:16.958Z,4.73
2024-03-28T06:02:16.475Z,4.78
2024-03-28T06:03:17.043Z,4.93
2024-03-28T06:04:16.662Z,4.92
2024-03-28T06:05:17.231Z,4.96
2024-03-28T06:06:16.755Z,5.04
2024-03-28T06:07:17.293Z,5.07
2024-03-28T06:08:16.883Z,5.18
2024-03-28T06:09:16.415Z,5.18
2024-03-28T06:10:16.959Z,5.43
2024-03-28T06:11:16.488Z,5.59
2024-03-28T06:12:17.048Z,5.61
2024-03-28T06:13:16.617Z,5.63
2024-03-28T06:14:16.350Z,5.66
2024-03-28T06:15:16.886Z,5.63
2024-03-28T06:16:17.075Z,5.73
2024-03-28T06:17:16.759Z,5.85
2024-03-28T06:18:17.344Z,5.72
2024-03-28T06:19:16.911Z,5.98
2024-03-28T06:20:16.406Z,6.10
2024-03-28T06:21:16.916Z,6.05
2024-03-28T06:22:16.465Z,6.15
2024-03-28T06:23:17.034Z,5.96
2024-03-28T06:24:16.570Z,5.97
2024-03-28T06:25:17.186Z,6.14
2024-03-28T06:26:16.731Z,6.28
2024-03-28T06:27:17.249Z,6.21
2024-03-28T06:28:16.813Z,6.28
2024-03-28T06:29:16.377Z,6.55
2024-03-28T06:30:16.937Z,6.80
2024-03-28T06:31:16.507Z,6.94
2024-03-28T06:32:17.247Z,7.12
2024-03-28T06:33:16.827Z,7.05
2024-03-28T06:34:16.361Z,6.43
2024-03-28T06:35:16.922Z,6.50
2024-03-28T06:36:17.940Z,6.70
2024-03-28T06:37:16.645Z,6.91
2024-03-28T06:38:17.174Z,7.07
2024-03-28T06:39:16.677Z,7.36
2024-03-28T06:40:17.275Z,7.43
2024-03-28T06:41:16.801Z,7.42
2024-03-28T06:42:16.338Z,7.53
2024-03-28T06:43:16.889Z,7.76
2024-03-28T06:44:16.458Z,7.64
2024-03-28T06:45:16.984Z,7.71
2024-03-28T06:46:16.545Z,7.42
2024-03-28T06:47:17.099Z,7.78
2024-03-28T06:48:16.646Z,7.83
2024-03-28T06:49:17.202Z,7.50
2024-03-28T06:50:16.755Z,7.50
2024-03-28T06:51:17.297Z,7.33
2024-03-28T06:52:16.846Z,7.50
2024-03-28T06:53:16.423Z,7.51
2024-03-28T06:54:16.948Z,7.46
2024-03-28T06:55:16.541Z,7.53
2024-03-28T06:56:17.059Z,7.63
2024-03-28T06:57:16.610Z,7.30
2024-03-28T06:58:17.149Z,7.47
2024-03-28T06:59:16.722Z,7.64
2024-03-28T07:00:17.315Z,7.30
2024-03-28T07:01:16.893Z,7.16
2024-03-28T07:02:16.505Z,7.30
2024-03-28T07:03:17.128Z,7.67
2024-03-28T07:04:16.736Z,7.73
2024-03-28T07:05:17.325Z,7.70
2024-03-28T07:06:17.375Z,7.56
2024-03-28T07:07:17.214Z,7.90
2024-03-28T07:08:16.783Z,7.85
2024-03-28T07:09:16.377Z,8.29
2024-03-28T07:10:16.932Z,8.04
2024-03-28T07:11:16.464Z,8.08
2024-03-28T07:12:17.003Z,8.01
2024-03-28T07:13:16.540Z,7.90
2024-03-28T07:14:17.090Z,7.90
2024-03-28T07:15:16.682Z,8.06
2024-03-28T07:16:17.229Z,7.91
2024-03-28T07:17:16.758Z,7.98
2024-03-28T07:18:17.352Z,7.98
2024-03-28T07:19:16.914Z,8.04
2024-03-28T07:20:16.496Z,8.44
2024-03-28T07:21:17.061Z,8.15
2024-03-28T07:22:16.641Z,8.32
2024-03-28T07:23:17.188Z,8.00
2024-03-28T07:24:16.755Z,8.36
2024-03-28T07:25:17.291Z,8.28
2024-03-28T07:26:16.822Z,8.20
2024-03-28T07:27:16.365Z,8.13
2024-03-28T07:28:16.884Z,8.53
2024-03-28T07:29:16.443Z,9.10
2024-03-28T07:30:17.001Z,9.51
2024-03-28T07:31:16.551Z,9.68
2024-03-28T07:32:17.110Z,9.96
2024-03-28T07:33:16.668Z,10.44
2024-03-28T07:34:17.216Z,10.12
2024-03-28T07:35:16.825Z,10.02
2024-03-28T07:36:16.429Z,10.03
2024-03-28T07:37:16.996Z,10.14
2024-03-28T07:38:16.530Z,10.26
2024-03-28T07:39:17.069Z,10.51
2024-03-28T07:40:16.612Z,10.41
2024-03-28T07:41:17.147Z,10.41
2024-03-28T07:42:18.496Z,10.31
2024-03-28T07:43:16.892Z,10.45
2024-03-28T07:44:16.502Z,10.45
2024-03-28T07:45:17.050Z,10.31
2024-03-28T07:46:16.609Z,10.74
2024-03-28T07:47:17.175Z,10.90
2024-03-28T07:48:16.749Z,11.06
2024-03-28T07:49:17.273Z,11.20
2024-03-28T07:50:16.805Z,11.44
2024-03-28T07:51:16.340Z,11.69
2024-03-28T07:52:16.957Z,11.30
2024-03-28T07:53:16.471Z,11.04
2024-03-28T07:54:17.075Z,11.09
2024-03-28T07:55:17.487Z,10.75
2024-03-28T07:56:17.272Z,11.06
2024-03-28T07:57:16.852Z,11.14
2024-03-28T07:58:16.409Z,10.36
2024-03-28T07:59:16.945Z,11.03
2024-03-28T08:00:16.514Z,11.06
2024-03-28T08:01:17.045Z,10.96
2024-03-28T08:02:16.618Z,10.76
2024-03-28T08:03:17.179Z,11.30
2024-03-28T08:04:16.720Z,10.86
2024-03-28T08:05:17.236Z,10.75
2024-03-28T08:06:16.762Z,10.93
2024-03-28T08:07:17.308Z,11.03
2024-03-28T08:08:16.865Z,10.76
2024-03-28T08:09:16.414Z,10.85
2024-03-28T08:10:16.949Z,12.00
2024-03-28T08:11:16.501Z,12.60
2024-03-28T08:12:17.063Z,12.87
2024-03-28T08:13:16.601Z,13.22
2024-03-28T08:14:17.180Z,12.66
2024-03-28T08:15:16.776Z,13.14
2024-03-28T08:16:16.348Z,12.60
2024-03-28T08:17:16.891Z,12.00
2024-03-28T08:18:16.414Z,12.13
2024-03-28T08:19:16.930Z,12.38
2024-03-28T08:20:16.482Z,11.99
2024-03-28T08:21:17.015Z,13.28
2024-03-28T08:22:16.987Z,13.31
2024-03-28T08:23:16.521Z,13.27
2024-03-28T08:24:17.097Z,13.35
2024-03-28T08:25:16.644Z,12.51
2024-03-28T08:26:17.206Z,12.60
2024-03-28T08:27:16.774Z,12.04
2024-03-28T08:28:16.313Z,11.45
2024-03-28T08:29:16.878Z,11.55
2024-03-28T08:30:16.405Z,11.44
2024-03-28T08:31:16.945Z,12.08
2024-03-28T08:32:16.465Z,12.30
2024-03-28T08:33:17.075Z,12.35
2024-03-28T08:34:16.696Z,13.04
2024-03-28T08:35:17.270Z,12.68
2024-03-28T08:36:16.803Z,12.51
2024-03-28T08:37:18.790Z,12.42
2024-03-28T08:38:16.668Z,12.14
2024-03-28T08:39:17.391Z,12.24
2024-03-28T08:40:17.023Z,12.01
2024-03-28T08:41:16.593Z,11.40
2024-03-28T08:42:17.129Z,11.41
2024-03-28T08:43:17.213Z,11.78
2024-03-28T08:44:16.756Z,11.71
2024-03-28T08:45:17.325Z,11.64
2024-03-28T08:46:16.828Z,11.73
2024-03-28T08:47:16.401Z,11.75
2024-03-28T08:48:16.967Z,11.78
2024-03-28T08:49:16.526Z,11.50
2024-03-28T08:50:17.085Z,11.00
2024-03-28T08:51:16.639Z,11.00
2024-03-28T08:52:17.280Z,11.00
2024-03-28T08:53:16.814Z,11.17
2024-03-28T08:54:16.392Z,11.24
2024-03-28T08:55:16.989Z,11.06
2024-03-28T08:56:16.554Z,10.47
2024-03-28T08:57:17.108Z,10.36
2024-03-28T08:58:16.691Z,10.37
2024-03-28T08:59:17.284Z,10.38
2024-03-28T09:00:16.860Z,10.34
2024-03-28T09:01:16.384Z,10.30
2024-03-28T09:02:16.924Z,10.27
2024-03-28T09:03:16.472Z,10.21
2024-03-28T09:04:17.050Z,10.06
2024-03-28T09:05:16.652Z,9.92
2024-03-28T09:06:17.259Z,9.75
2024-03-28T09:07:16.867Z,9.84
2024-03-28T09:08:16.449Z,9.91
2024-03-28T09:09:16.985Z,9.88
2024-03-28T09:10:16.531Z,9.89
2024-03-28T09:11:17.126Z,9.86
2024-03-28T09:12:17.925Z,9.82
2024-03-28T09:13:16.756Z,9.80
2024-03-28T09:14:17.320Z,9.78
2024-03-28T09:15:16.882Z,9.57
2024-03-28T09:16:16.394Z,9.57
2024-03-28T09:17:16.955Z,9.57
2024-03-28T09:18:16.514Z,9.48
2024-03-28T09:19:17.072Z,9.53
2024-03-28T09:20:16.615Z,9.53
2024-03-28T09:21:17.151Z,9.51
2024-03-28T09:22:16.718Z,9.50
2024-03-28T09:23:17.244Z,9.51
2024-03-28T09:24:16.833Z,9.48
2024-03-28T09:25:16.454Z,9.46
2024-03-28T09:26:17.051Z,9.51
2024-03-28T09:27:16.639Z,9.57
2024-03-28T09:28:17.189Z,9.54
2024-03-28T09:29:16.729Z,9.51
2024-03-28T09:30:17.294Z,9.57
2024-03-28T09:31:16.847Z,9.64
2024-03-28T09:32:16.658Z,9.71
2024-03-28T09:33:17.173Z,9.76
2024-03-28T09:34:16.709Z,9.75
2024-03-28T09:35:17.253Z,9.68
2024-03-28T09:36:18.986Z,9.61
2024-03-28T09:37:17.328Z,9.59
2024-03-28T09:38:16.906Z,9.58
2024-03-28T09:39:16.464Z,9.62
2024-03-28T09:40:17.024Z,9.62
2024-03-28T09:41:16.581Z,9.66
2024-03-28T09:42:17.134Z,9.68
2024-03-28T09:43:16.722Z,9.61
2024-03-28T09:44:17.260Z,9.57
2024-03-28T09:45:16.813Z,9.58
2024-03-28T09:46:16.362Z,9.48
2024-03-28T09:47:16.935Z,9.48
2024-03-28T09:48:16.652Z,9.41
2024-03-28T09:49:17.222Z,9.34
2024-03-28T09:50:16.747Z,9.31
2024-03-28T09:51:16.353Z,9.19
2024-03-28T09:52:16.873Z,8.82
2024-03-28T09:53:16.427Z,8.64
2024-03-28T09:54:16.955Z,8.60
2024-03-28T09:55:16.497Z,8.37
2024-03-28T09:56:17.048Z,8.32
2024-03-28T09:57:16.625Z,8.23
2024-03-28T09:58:17.179Z,8.08
2024-03-28T09:59:16.707Z,7.94
2024-03-28T10:00:16.322Z,7.84
2024-03-28T10:01:16.920Z,7.78
2024-03-28T10:02:16.482Z,7.68
2024-03-28T10:03:16.999Z,7.71
2024-03-28T10:04:16.559Z,7.71
2024-03-28T10:05:17.120Z,7.74
2024-03-28T10:06:16.679Z,7.60
2024-03-28T10:07:17.236Z,7.53
2024-03-28T10:08:16.745Z,7.49
2024-03-28T10:09:17.262Z,7.42
2024-03-28T10:10:16.804Z,7.36
2024-03-28T10:11:16.374Z,7.35
2024-03-28T10:12:16.896Z,7.35
2024-03-28T10:13:16.438Z,7.33
2024-03-28T10:14:16.954Z,7.32
2024-03-28T10:15:16.557Z,7.35
2024-03-28T10:16:17.138Z,7.25
2024-03-28T10:17:16.672Z,7.32
2024-03-28T10:18:17.201Z,7.32
2024-03-28T10:19:16.749Z,7.35
2024-03-28T10:20:17.314Z,7.35
2024-03-28T10:21:16.845Z,7.32
2024-03-28T10:22:17.387Z,7.28
2024-03-28T10:23:16.998Z,7.32
2024-03-28T10:24:16.591Z,7.39
2024-03-28T10:25:17.152Z,7.36
2024-03-28T10:26:16.713Z,7.40
2024-03-28T10:27:17.270Z,7.47
2024-03-28T10:28:16.812Z,7.46
2024-03-28T10:29:16.349Z,7.50
2024-03-28T10:30:16.896Z,7.47
2024-03-28T10:31:16.449Z,7.50
2024-03-28T10:32:17.098Z,7.54
2024-03-28T10:33:17.903Z,7.58
2024-03-28T10:34:17.110Z,7.56
2024-03-28T10:35:16.665Z,7.56
2024-03-28T10:36:17.254Z,7.60
2024-03-28T10:37:16.796Z,7.61
2024-03-28T10:38:18.058Z,7.67
2024-03-28T10:39:16.780Z,7.78
2024-03-28T10:40:17.321Z,7.77
2024-03-28T10:41:16.926Z,7.70
2024-03-28T10:42:16.597Z,7.76
2024-03-28T10:43:17.150Z,7.64
2024-03-28T10:44:16.726Z,7.76
2024-03-28T10:45:16.642Z,7.78
2024-03-28T10:46:17.177Z,7.81
2024-03-28T10:47:16.771Z,7.85
2024-03-28T10:48:16.364Z,7.84
2024-03-28T10:49:16.972Z,7.90
2024-03-28T10:50:16.533Z,7.94
2024-03-28T10:51:17.108Z,7.95
2024-03-28T10:52:16.692Z,7.91
2024-03-28T10:53:17.255Z,8.02
2024-03-28T10:54:19.099Z,8.02
2024-03-28T10:55:17.077Z,8.13
2024-03-28T10:56:16.602Z,8.18
2024-03-28T10:57:17.129Z,8.26
2024-03-28T10:58:16.689Z,8.32
2024-03-28T10:59:17.231Z,8.16
2024-03-28T11:00:16.848Z,8.25
2024-03-28T11:01:16.503Z,8.28
2024-03-28T11:02:17.086Z,8.37
2024-03-28T11:03:16.621Z,8.39
2024-03-28T11:04:17.216Z,8.47
2024-03-28T11:05:16.744Z,8.35
2024-03-28T11:06:16.311Z,8.35
2024-03-28T11:07:16.899Z,8.50
2024-03-28T11:08:16.468Z,8.54
2024-03-28T11:09:17.006Z,8.58
2024-03-28T11:10:16.574Z,8.50
2024-03-28T11:11:17.105Z,8.60
2024-03-28T11:12:16.680Z,8.64
2024-03-28T11:13:17.258Z,8.78
2024-03-28T11:14:16.832Z,8.78
2024-03-28T11:15:16.371Z,8.68
2024-03-28T11:16:16.884Z,8.76
2024-03-28T11:17:16.421Z,8.71
2024-03-28T11:18:16.999Z,8.74
2024-03-28T11:19:16.551Z,8.78
2024-03-28T11:20:17.090Z,8.81
2024-03-28T11:21:16.642Z,8.78
2024-03-28T11:22:17.198Z,8.84
2024-03-28T11:23:16.767Z,8.90
2024-03-28T11:24:16.346Z,8.84
2024-03-28T11:25:16.873Z,8.87
2024-03-28T11:26:17.188Z,9.02
2024-03-28T11:27:16.760Z,9.10
2024-03-28T11:28:17.102Z,9.03
2024-03-28T11:29:16.640Z,9.03
2024-03-28T11:30:17.175Z,9.10
2024-03-28T11:31:16.727Z,8.96
2024-03-28T11:32:17.290Z,8.96
2024-03-28T11:33:16.836Z,9.03
2024-03-28T11:34:16.368Z,9.02
2024-03-28T11:35:16.915Z,9.05
2024-03-28T11:36:16.480Z,9.10
2024-03-28T11:37:17.045Z,9.15
2024-03-28T11:38:16.631Z,9.29
2024-03-28T11:39:17.179Z,9.33
2024-03-28T11:40:16.729Z,9.31
2024-03-28T11:41:17.238Z,9.22
2024-03-28T11:42:25.810Z,9.08
2024-03-28T11:43:16.601Z,9.08
2024-03-28T11:44:17.159Z,9.12
2024-03-28T11:45:16.685Z,9.20
2024-03-28T11:46:17.244Z,9.27
2024-03-28T11:47:16.800Z,9.29
2024-03-28T11:48:16.386Z,9.37
2024-03-28T11:49:16.917Z,9.41
2024-03-28T11:50:16.455Z,9.38
2024-03-28T11:51:17.013Z,9.44
2024-03-28T11:52:16.543Z,9.48
2024-03-28T11:53:17.047Z,9.47
2024-03-28T11:54:16.562Z,9.55
2024-03-28T11:55:17.079Z,9.50
2024-03-28T11:56:16.603Z,9.51
2024-03-28T11:57:17.115Z,9.58
2024-03-28T11:58:16.655Z,9.58
2024-03-28T11:59:17.166Z,9.55
2024-03-28T12:00:16.675Z,9.62
2024-03-28T12:01:17.260Z,9.58
2024-03-28T12:02:16.939Z,9.61
2024-03-28T12:03:16.502Z,9.59
2024-03-28T12:04:17.070Z,9.64
2024-03-28T12:05:16.581Z,9.58
2024-03-28T12:06:17.120Z,9.55
2024-03-28T12:07:16.679Z,9.55
2024-03-28T12:08:17.321Z,9.48
2024-03-28T12:09:16.531Z,9.53
2024-03-28T12:10:17.093Z,9.54
2024-03-28T12:11:16.624Z,9.65
2024-03-28T12:12:17.143Z,9.68
2024-03-28T12:13:16.720Z,9.72
2024-03-28T12:14:17.290Z,9.75
2024-03-28T12:15:16.808Z,9.66
2024-03-28T12:16:16.319Z,9.66
2024-03-28T12:17:16.898Z,9.65
2024-03-28T12:18:16.453Z,9.78
2024-03-28T12:19:16.982Z,9.76
2024-03-28T12:20:16.563Z,9.72
2024-03-28T12:21:17.119Z,9.78
2024-03-28T12:22:16.645Z,9.76
2024-03-28T12:23:16.544Z,9.74
2024-03-28T12:24:17.139Z,9.74
2024-03-28T12:25:16.704Z,9.76
2024-03-28T12:26:17.228Z,9.76
2024-03-28T12:27:16.776Z,9.78
2024-03-28T12:28:16.372Z,9.88
2024-03-28T12:29:16.993Z,9.75
2024-03-28T12:30:16.533Z,9.68
2024-03-28T12:31:17.061Z,9.65
2024-03-28T12:32:18.494Z,9.68
2024-03-28T12:33:16.495Z,9.75
2024-03-28T12:34:17.018Z,9.78
2024-03-28T12:35:16.544Z,9.80
2024-03-28T12:36:20.076Z,9.76
2024-03-28T12:37:16.885Z,9.74
2024-03-28T12:38:16.420Z,9.78
2024-03-28T12:39:16.992Z,9.82
2024-03-28T12:40:16.552Z,9.88
2024-03-28T12:41:17.048Z,9.82
2024-03-28T12:42:16.591Z,9.82
2024-03-28T12:43:17.141Z,9.78
2024-03-28T12:44:16.688Z,9.80
2024-03-28T12:45:23.124Z,9.80
2024-03-28T12:46:17.079Z,9.86
2024-03-28T12:47:16.623Z,9.82
2024-03-28T12:48:17.170Z,9.89
2024-03-28T12:49:16.728Z,9.92
2024-03-28T12:50:17.233Z,9.92
2024-03-28T12:51:16.746Z,9.85
2024-03-28T12:52:17.271Z,9.80
2024-03-28T12:53:16.831Z,9.82
2024-03-28T12:54:16.433Z,9.84
2024-03-28T12:55:18.722Z,9.91
2024-03-28T12:56:17.131Z,9.80
2024-03-28T12:57:16.689Z,9.80
2024-03-28T12:58:17.265Z,9.78
2024-03-28T12:59:16.810Z,9.76
2024-03-28T13:00:16.377Z,9.75
2024-03-28T13:01:16.941Z,9.76
2024-03-28T13:02:16.472Z,9.76
2024-03-28T13:03:17.028Z,9.82
2024-03-28T13:04:16.588Z,9.84
2024-03-28T13:05:17.113Z,9.84
2024-03-28T13:06:16.635Z,9.89
2024-03-28T13:07:17.233Z,9.92
2024-03-28T13:08:16.761Z,9.99
2024-03-28T13:09:17.327Z,10.02
2024-03-28T13:10:16.910Z,9.99
2024-03-28T13:11:16.426Z,9.98
2024-03-28T13:12:16.968Z,9.96
2024-03-28T13:13:16.527Z,9.98
2024-03-28T13:14:17.068Z,10.03
2024-03-28T13:15:16.629Z,10.06